createdAt,value
2022-08-09T00:00:04.424Z,14.10
2022-08-09T00:02:34.128Z,14.10
2022-08-09T00:06:12.069Z,14.00
2022-08-09T00:07:49.193Z,14.00
2022-08-09T00:10:18.128Z,13.90
2022-08-09T00:12:54.670Z,13.90
2022-08-09T00:15:26.692Z,13.90
2022-08-09T00:18:21.145Z,13.80
2022-08-09T00:20:50.365Z,13.80
2022-08-09T00:23:57.368Z,13.80
2022-08-09T00:26:06.983Z,13.80
2022-08-09T00:28:34.976Z,13.70
2022-08-09T00:31:09.249Z,13.70
2022-08-09T00:33:53.985Z,13.60
2022-08-09T00:36:22.479Z,13.60
2022-08-09T00:38:56.785Z,13.60
2022-08-09T00:44:10.493Z,13.50
2022-08-09T00:44:20.179Z,13.50
2022-08-09T00:47:04.465Z,13.40
2022-08-09T00:49:36.590Z,13.40
2022-08-09T00:52:06.244Z,13.40
2022-08-09T00:54:45.817Z,13.30
2022-08-09T00:57:12.897Z,13.30
2022-08-09T00:59:46.725Z,13.20
2022-08-09T01:02:19.280Z,13.20
2022-08-09T01:05:21.793Z,13.20
2022-08-09T01:08:03.252Z,13.10
2022-08-09T01:10:51.397Z,13.10
2022-08-09T01:13:41.862Z,13.10
2022-08-09T01:16:23.465Z,13.10
2022-08-09T01:19:02.640Z,13.00
2022-08-09T01:21:59.564Z,13.00
2022-08-09T01:24:52.182Z,13.00
2022-08-09T01:27:20.400Z,13.00
2022-08-09T01:29:56.305Z,12.90
2022-08-09T01:32:45.423Z,12.90
2022-08-09T01:35:38.047Z,12.90
2022-08-09T01:38:15.092Z,12.90
2022-08-09T01:40:53.119Z,12.80
2022-08-09T01:43:50.014Z,12.80
2022-08-09T01:46:27.309Z,12.80
2022-08-09T01:49:10.226Z,12.70
2022-08-09T01:51:54.838Z,12.70
2022-08-09T01:54:32.556Z,12.70
2022-08-09T01:57:04.337Z,12.70
2022-08-09T01:59:32.692Z,12.60
2022-08-09T02:02:10.418Z,12.60
2022-08-09T02:04:45.411Z,12.60
2022-08-09T02:08:35.478Z,12.50
2022-08-09T02:10:15.657Z,12.50
2022-08-09T02:12:46.006Z,12.50
2022-08-09T02:15:16.820Z,12.50
2022-08-09T02:18:00.837Z,12.50
2022-08-09T02:20:35.276Z,12.50
2022-08-09T02:23:08.041Z,12.50
2022-08-09T02:25:42.317Z,12.50
2022-08-09T02:28:20.190Z,12.50
2022-08-09T02:30:51.921Z,12.40
2022-08-09T02:33:23.068Z,12.40
2022-08-09T02:36:06.934Z,12.30
2022-08-09T02:38:47.703Z,12.30
2022-08-09T02:41:19.750Z,12.30
2022-08-09T02:43:54.849Z,12.30
2022-08-09T02:46:28.430Z,12.30
2022-08-09T02:48:59.177Z,12.30
2022-08-09T02:51:27.835Z,12.20
2022-08-09T02:54:01.567Z,12.20
2022-08-09T02:56:31.637Z,12.20
2022-08-09T02:58:59.883Z,12.20
2022-08-09T03:01:29.542Z,12.20
2022-08-09T03:04:19.283Z,12.10
2022-08-09T03:06:48.882Z,12.10
2022-08-09T03:09:17.682Z,12.10
2022-08-09T03:12:05.873Z,12.10
2022-08-09T03:14:32.882Z,12.10
2022-08-09T03:17:01.748Z,12.10
2022-08-09T03:19:52.378Z,12.00
2022-08-09T03:22:25.141Z,12.00
2022-08-09T03:25:13.608Z,12.00
2022-08-09T03:27:47.809Z,12.00
2022-08-09T03:30:28.100Z,12.00
2022-08-09T03:32:58.594Z,11.90
2022-08-09T03:36:11.362Z,11.90
2022-08-09T03:38:28.532Z,11.90
2022-08-09T03:40:56.013Z,11.90
2022-08-09T03:43:22.851Z,11.80
2022-08-09T03:46:03.911Z,11.80
2022-08-09T03:48:42.964Z,11.80
2022-08-09T03:51:57.276Z,11.80
2022-08-09T03:54:06.643Z,11.80
2022-08-09T03:56:41.257Z,11.80
2022-08-09T03:59:17.213Z,11.80
2022-08-09T04:01:50.671Z,11.70
2022-08-09T04:04:18.172Z,11.70
2022-08-09T04:06:49.211Z,11.70
2022-08-09T04:09:48.074Z,11.70
2022-08-09T04:12:12.004Z,11.70
2022-08-09T04:15:00.916Z,11.70
2022-08-09T04:17:27.174Z,11.70
2022-08-09T04:19:56.704Z,11.70
2022-08-09T04:22:23.671Z,11.70
2022-08-09T04:24:50.709Z,11.70
2022-08-09T04:27:22.132Z,11.70
2022-08-09T04:29:50.478Z,11.70
2022-08-09T04:32:23.673Z,11.70
2022-08-09T04:34:58.541Z,11.70
2022-08-09T04:37:45.618Z,11.70
2022-08-09T04:40:19.717Z,11.80
2022-08-09T04:42:56.805Z,11.80
2022-08-09T04:45:23.959Z,11.80
2022-08-09T04:48:01.153Z,11.80
2022-08-09T04:50:34.982Z,11.80
2022-08-09T04:53:11.599Z,11.90
2022-08-09T04:55:52.772Z,11.90
2022-08-09T04:58:27.427Z,11.90
2022-08-09T05:00:55.343Z,12.00
2022-08-09T05:03:40.525Z,12.00
2022-08-09T05:06:11.918Z,12.10
2022-08-09T05:08:50.337Z,12.10
2022-08-09T05:11:17.212Z,12.10
2022-08-09T05:13:44.176Z,12.20
2022-08-09T05:16:11.251Z,12.20
2022-08-09T05:18:59.072Z,12.20
2022-08-09T05:21:30.279Z,12.30
2022-08-09T05:24:04.777Z,12.30
2022-08-09T05:26:36.806Z,12.40
2022-08-09T05:29:21.196Z,12.40
2022-08-09T05:31:57.100Z,12.50
2022-08-09T05:34:30.830Z,12.60
2022-08-09T05:37:06.615Z,12.70
2022-08-09T05:39:43.420Z,12.80
2022-08-09T05:42:21.113Z,12.90
2022-08-09T05:44:53.361Z,13.00
2022-08-09T05:47:22.848Z,13.20
2022-08-09T05:50:24.418Z,13.50
2022-08-09T05:52:40.086Z,13.70
2022-08-09T05:55:20.640Z,14.00
2022-08-09T05:57:55.774Z,14.10
2022-08-09T06:00:33.010Z,14.30
2022-08-09T06:03:02.729Z,14.60
2022-08-09T06:05:54.770Z,14.90
2022-08-09T06:08:24.069Z,15.20
2022-08-09T06:10:55.599Z,15.40
2022-08-09T06:13:28.634Z,15.60
2022-08-09T06:16:04.906Z,15.70
2022-08-09T06:18:32.525Z,15.70
2022-08-09T06:21:00.883Z,15.80
2022-08-09T06:23:58.633Z,15.80
2022-08-09T06:26:20.389Z,15.80
2022-08-09T06:28:59.894Z,15.90
2022-08-09T06:31:39.828Z,15.90
2022-08-09T06:34:19.257Z,16.00
2022-08-09T06:36:46.266Z,16.00
2022-08-09T06:39:13.919Z,16.00
2022-08-09T06:42:09.467Z,16.10
2022-08-09T06:44:28.736Z,16.10
2022-08-09T06:46:55.968Z,16.10
2022-08-09T06:49:29.000Z,16.20
2022-08-09T06:52:12.072Z,16.30
2022-08-09T06:54:42.559Z,16.30
2022-08-09T06:57:12.074Z,16.40
2022-08-09T07:00:52.032Z,16.50
2022-08-09T07:02:29.244Z,16.60
2022-08-09T07:05:01.899Z,16.70
2022-08-09T07:08:00.117Z,16.80
2022-08-09T07:10:30.003Z,16.90
2022-08-09T07:12:59.424Z,17.00
2022-08-09T07:16:34.955Z,17.10
2022-08-09T07:18:14.221Z,17.30
2022-08-09T07:21:03.074Z,17.40
2022-08-09T07:23:36.181Z,17.50
2022-08-09T07:26:04.278Z,17.70
2022-08-09T07:28:34.598Z,17.80
2022-08-09T07:31:04.759Z,17.90
2022-08-09T07:33:52.546Z,18.00
2022-08-09T07:36:22.639Z,18.10
2022-08-09T07:39:20.347Z,18.30
2022-08-09T07:42:02.593Z,18.30
2022-08-09T07:44:33.100Z,18.50
2022-08-09T07:47:16.426Z,18.50
2022-08-09T07:50:04.589Z,18.50
2022-08-09T07:52:38.377Z,18.60
2022-08-09T07:55:28.727Z,18.70
2022-08-09T07:58:13.107Z,18.60
2022-08-09T08:00:56.070Z,18.50
2022-08-09T08:03:26.840Z,18.60
2022-08-09T08:05:58.245Z,18.90
2022-08-09T08:09:00.564Z,19.10
2022-08-09T08:12:09.248Z,19.30
2022-08-09T08:14:00.638Z,19.40
2022-08-09T08:16:30.000Z,19.60
2022-08-09T08:19:03.257Z,19.60
2022-08-09T08:21:31.970Z,19.40
2022-08-09T08:24:01.270Z,19.20
2022-08-09T08:26:55.032Z,19.10
2022-08-09T08:29:27.436Z,19.10
2022-08-09T08:32:03.496Z,19.40
2022-08-09T08:35:20.002Z,19.80
2022-08-09T08:37:59.981Z,20.20
2022-08-09T08:40:49.470Z,20.60
2022-08-09T08:43:31.344Z,21.00
2022-08-09T08:46:32.478Z,21.30
2022-08-09T08:49:12.807Z,21.50
2022-08-09T08:52:01.737Z,21.60
2022-08-09T08:54:46.647Z,21.70
2022-08-09T08:57:16.290Z,21.40
2022-08-09T09:03:01.528Z,21.20
2022-08-09T09:06:00.810Z,21.60
2022-08-09T09:08:43.684Z,22.00
2022-08-09T09:11:33.880Z,22.10
2022-08-09T09:14:24.005Z,22.10
2022-08-09T09:16:51.513Z,21.90
2022-08-09T09:19:36.509Z,21.50
2022-08-09T09:26:01.328Z,21.10
2022-08-09T09:28:05.478Z,21.50
2022-08-09T09:30:54.633Z,22.00
2022-08-09T09:33:44.744Z,22.50
2022-08-09T09:36:20.888Z,22.80
2022-08-09T09:38:49.619Z,23.10
2022-08-09T09:41:32.636Z,23.30
2022-08-09T09:44:15.619Z,23.30
2022-08-09T09:46:57.093Z,23.30
2022-08-09T09:49:56.122Z,23.10
2022-08-09T09:52:16.513Z,23.10
2022-08-09T09:55:24.207Z,23.20
2022-08-09T09:58:18.814Z,23.40
2022-08-09T10:00:53.768Z,23.70
2022-08-09T10:04:00.128Z,23.70
2022-08-09T10:06:32.462Z,23.70
2022-08-09T10:09:21.648Z,23.80
2022-08-09T10:12:11.375Z,23.90
2022-08-09T10:14:40.110Z,23.90
2022-08-09T10:17:39.930Z,23.70
2022-08-09T10:20:27.713Z,23.70
2022-08-09T10:23:12.464Z,23.80
2022-08-09T10:26:04.496Z,23.80
2022-08-09T10:28:34.212Z,23.60
2022-08-09T10:34:09.260Z,23.40
2022-08-09T10:36:37.516Z,23.60
2022-08-09T10:39:13.973Z,23.90
2022-08-09T10:41:43.134Z,24.00
2022-08-09T10:44:10.027Z,24.20
2022-08-09T10:47:00.866Z,24.40
2022-08-09T10:49:51.487Z,24.50
2022-08-09T10:52:57.755Z,24.70
2022-08-09T10:55:55.082Z,24.70
2022-08-09T10:58:37.112Z,24.80
2022-08-09T11:03:02.282Z,24.70
2022-08-09T11:04:27.841Z,24.60
2022-08-09T11:06:57.883Z,24.50
2022-08-09T11:09:38.797Z,24.60
2022-08-09T11:12:18.648Z,24.70
2022-08-09T11:14:57.525Z,24.90
2022-08-09T11:17:27.452Z,24.90
2022-08-09T11:20:10.669Z,24.80
2022-08-09T11:22:49.141Z,24.90
2022-08-09T11:25:44.935Z,24.90
2022-08-09T11:28:53.357Z,25.10
2022-08-09T11:31:43.380Z,25.20
2022-08-09T11:34:33.459Z,25.30
2022-08-09T11:37:03.572Z,25.50
2022-08-09T11:40:01.274Z,25.70
2022-08-09T11:43:00.317Z,25.60
2022-08-09T11:45:43.056Z,25.50
2022-08-09T11:48:26.013Z,25.40
2022-08-09T11:52:49.222Z,25.40
2022-08-09T11:53:59.979Z,25.30
2022-08-09T11:56:42.785Z,25.20
2022-08-09T11:59:29.969Z,25.10
2022-08-09T12:02:18.043Z,25.10
2022-08-09T12:04:48.168Z,25.10
2022-08-09T12:07:26.988Z,25.20
2022-08-09T12:09:53.800Z,25.10
2022-08-09T12:12:29.000Z,25.10
2022-08-09T12:15:07.794Z,25.10
2022-08-09T12:17:44.445Z,25.00
2022-08-09T12:20:24.069Z,25.00
2022-08-09T12:22:56.166Z,25.00
2022-08-09T12:25:34.732Z,24.90
2022-08-09T12:29:15.118Z,25.00
2022-08-09T12:31:30.887Z,25.00
2022-08-09T12:34:08.632Z,24.80
2022-08-09T12:37:09.519Z,24.60
2022-08-09T12:39:40.136Z,24.50
2022-08-09T12:42:16.455Z,24.70
2022-08-09T12:44:46.292Z,24.70
2022-08-09T12:47:22.752Z,24.90
2022-08-09T12:50:09.235Z,25.00
2022-08-09T12:52:44.274Z,25.00
2022-08-09T12:56:12.063Z,24.90
2022-08-09T12:58:24.131Z,24.80
2022-08-09T13:00:55.453Z,24.80
2022-08-09T13:03:53.060Z,24.60
2022-08-09T13:06:34.703Z,24.50
2022-08-09T13:09:24.618Z,24.50
2022-08-09T13:12:01.501Z,24.50
2022-08-09T13:14:43.006Z,24.50
2022-08-09T13:17:44.425Z,24.30
2022-08-09T13:20:13.227Z,24.20
2022-08-09T13:23:05.502Z,24.30
2022-08-09T13:25:42.618Z,24.40
2022-08-09T13:28:11.684Z,24.40
2022-08-09T13:32:13.878Z,24.30
2022-08-09T13:33:56.766Z,24.10
2022-08-09T13:36:40.579Z,24.00
2022-08-09T13:41:49.549Z,23.90
2022-08-09T13:42:05.709Z,23.80
2022-08-09T13:44:42.168Z,23.70
2022-08-09T13:47:29.521Z,23.70
2022-08-09T13:50:02.227Z,23.60
2022-08-09T13:52:30.694Z,23.60
2022-08-09T13:54:59.737Z,23.60
2022-08-09T13:57:37.411Z,23.60
2022-08-09T14:00:18.696Z,23.70
2022-08-09T14:03:02.959Z,23.70
2022-08-09T14:05:58.993Z,23.70
2022-08-09T14:08:26.883Z,23.70
2022-08-09T14:10:54.467Z,23.50
2022-08-09T14:14:15.718Z,23.30
2022-08-09T14:16:13.778Z,23.30
2022-08-09T14:18:45.290Z,23.30
2022-08-09T14:21:17.982Z,23.30
2022-08-09T14:23:55.144Z,23.30
2022-08-09T14:26:31.925Z,23.40
2022-08-09T14:30:15.227Z,23.40
2022-08-09T14:31:55.220Z,23.30
2022-08-09T14:34:27.564Z,23.20
2022-08-09T14:37:01.381Z,23.00
2022-08-09T14:39:39.928Z,23.10
2022-08-09T14:42:13.554Z,23.00
2022-08-09T14:44:59.898Z,22.70
2022-08-09T14:47:45.303Z,22.60
2022-08-09T14:50:16.192Z,22.60
2022-08-09T14:52:50.019Z,22.60
2022-08-09T14:55:20.404Z,22.70
2022-08-09T14:57:48.910Z,22.70
2022-08-09T15:00:16.413Z,22.70
2022-08-09T15:02:47.455Z,22.60
2022-08-09T15:05:18.553Z,22.50
2022-08-09T15:07:56.191Z,22.40
2022-08-09T15:10:31.749Z,22.40
2022-08-09T15:12:59.630Z,22.40
2022-08-09T15:15:28.824Z,22.40
2022-08-09T15:17:56.448Z,22.40
2022-08-09T15:22:00.966Z,22.40
2022-08-09T15:24:03.689Z,22.30
2022-08-09T15:25:59.659Z,22.30
2022-08-09T15:28:27.696Z,22.20
2022-08-09T15:31:09.805Z,22.20
2022-08-09T15:34:32.673Z,22.10
2022-08-09T15:36:29.365Z,22.10
2022-08-09T15:39:00.539Z,22.10
2022-08-09T15:41:31.204Z,22.20
2022-08-09T15:44:02.884Z,22.20
2022-08-09T15:46:34.219Z,22.20
2022-08-09T15:49:22.094Z,22.20
2022-08-09T15:52:05.127Z,22.10
2022-08-09T15:54:52.661Z,22.00
2022-08-09T15:57:35.550Z,22.00
2022-08-09T16:00:25.856Z,22.00
2022-08-09T16:02:56.426Z,21.90
2022-08-09T16:05:47.289Z,21.90
2022-08-09T16:08:30.977Z,21.90
2022-08-09T16:11:01.272Z,21.80
2022-08-09T16:14:04.136Z,21.80
2022-08-09T16:16:19.272Z,21.80
2022-08-09T16:18:47.468Z,21.70
2022-08-09T16:21:17.504Z,21.70
2022-08-09T16:23:58.686Z,21.60
2022-08-09T16:26:34.630Z,21.50
2022-08-09T16:29:11.153Z,21.40
2022-08-09T16:32:12.575Z,21.30
2022-08-09T16:34:54.630Z,21.30
2022-08-09T16:37:50.658Z,21.20
2022-08-09T16:40:10.305Z,21.20
2022-08-09T16:42:37.894Z,21.20
2022-08-09T16:45:06.625Z,21.10
2022-08-09T16:48:37.914Z,21.00
2022-08-09T16:50:31.405Z,20.90
2022-08-09T16:53:05.653Z,20.90
2022-08-09T16:55:58.732Z,20.80
2022-08-09T16:58:21.139Z,20.80
2022-08-09T17:00:48.997Z,20.80
2022-08-09T17:03:22.108Z,20.80
2022-08-09T17:06:07.905Z,20.70
2022-08-09T17:09:03.126Z,20.70
2022-08-09T17:11:32.907Z,20.70
2022-08-09T17:14:25.486Z,20.60
2022-08-09T17:16:59.839Z,20.50
2022-08-09T17:20:05.209Z,20.50
2022-08-09T17:22:15.466Z,20.40
2022-08-09T17:24:47.824Z,20.30
2022-08-09T17:27:22.934Z,20.30
2022-08-09T17:29:51.558Z,20.20
2022-08-09T17:32:26.512Z,20.10
2022-08-09T17:35:11.750Z,20.10
2022-08-09T17:38:10.142Z,20.00
2022-08-09T17:40:40.378Z,19.90
2022-08-09T17:43:32.362Z,19.80
2022-08-09T17:46:03.202Z,19.80
2022-08-09T17:48:31.464Z,19.70
2022-08-09T17:51:06.565Z,19.70
2022-08-09T17:53:43.479Z,19.60
2022-08-09T17:56:18.354Z,19.60
2022-08-09T17:58:45.379Z,19.50
2022-08-09T18:01:22.530Z,19.50
2022-08-09T18:03:54.649Z,19.40
2022-08-09T18:06:32.123Z,19.40
2022-08-09T18:09:03.321Z,19.30
2022-08-09T18:11:46.997Z,19.30
2022-08-09T18:14:20.334Z,19.20
2022-08-09T18:16:49.094Z,19.10
2022-08-09T18:20:58.070Z,19.00
2022-08-09T18:22:04.335Z,19.00
2022-08-09T18:24:31.280Z,18.90
2022-08-09T18:26:58.145Z,18.80
2022-08-09T18:30:38.509Z,18.70
2022-08-09T18:32:19.056Z,18.70
2022-08-09T18:34:48.398Z,18.60
2022-08-09T18:37:48.156Z,18.50
2022-08-09T18:40:09.030Z,18.40
2022-08-09T18:42:36.699Z,18.30
2022-08-09T18:45:08.681Z,18.30
2022-08-09T18:47:37.137Z,18.20
2022-08-09T18:50:08.991Z,18.10
2022-08-09T18:52:37.922Z,18.00
2022-08-09T18:55:06.500Z,17.90
2022-08-09T18:57:45.381Z,17.80
2022-08-09T19:00:19.178Z,17.70
2022-08-09T19:02:51.252Z,17.60
2022-08-09T19:05:28.859Z,17.60
2022-08-09T19:08:14.059Z,17.40
2022-08-09T19:10:45.738Z,17.30
2022-08-09T19:13:20.479Z,17.20
2022-08-09T19:15:56.361Z,17.10
2022-08-09T19:18:35.210Z,17.00
2022-08-09T19:21:09.142Z,16.90
2022-08-09T19:24:39.832Z,16.90
2022-08-09T19:26:31.919Z,16.80
2022-08-09T19:29:15.128Z,16.80
2022-08-09T19:32:53.038Z,16.70
2022-08-09T19:35:21.391Z,16.60
2022-08-09T19:37:57.395Z,16.50
2022-08-09T19:40:33.408Z,16.50
2022-08-09T19:43:05.267Z,16.40
2022-08-09T19:45:38.965Z,16.30
2022-08-09T19:48:10.716Z,16.20
2022-08-09T19:50:50.701Z,16.20
2022-08-09T19:53:21.467Z,16.10
2022-08-09T19:56:03.032Z,16.00
2022-08-09T19:58:33.949Z,16.00
2022-08-09T20:01:01.572Z,15.90
2022-08-09T20:04:10.450Z,15.90
2022-08-09T20:06:23.359Z,15.80
2022-08-09T20:09:44.403Z,15.70
2022-08-09T20:12:30.002Z,15.60
2022-08-09T20:15:07.371Z,15.50
2022-08-09T20:17:54.467Z,15.50
2022-08-09T20:20:22.236Z,15.40
2022-08-09T20:22:56.131Z,15.40
2022-08-09T20:25:51.762Z,15.30
2022-08-09T20:28:32.025Z,15.30
2022-08-09T20:31:04.890Z,15.20
2022-08-09T20:33:40.941Z,15.20
2022-08-09T20:36:13.031Z,15.10
2022-08-09T20:41:50.677Z,15.10
2022-08-09T20:44:26.871Z,15.00
2022-08-09T20:47:45.241Z,14.90
2022-08-09T20:50:48.329Z,14.90
2022-08-09T20:54:00.080Z,14.90
2022-08-09T20:57:06.804Z,14.80
2022-08-09T21:00:20.605Z,14.70
2022-08-09T21:05:52.812Z,14.50
2022-08-09T21:08:36.603Z,14.50
2022-08-09T21:14:34.771Z,14.40
2022-08-09T21:18:11.682Z,14.40
2022-08-09T21:20:22.691Z,14.40
2022-08-09T21:22:54.445Z,14.30
2022-08-09T21:25:44.326Z,14.20
2022-08-09T21:28:35.434Z,14.20
2022-08-09T21:31:16.654Z,14.10
2022-08-09T21:33:52.117Z,14.10
2022-08-09T21:36:25.818Z,14.00
2022-08-09T21:38:57.797Z,14.00
2022-08-09T21:42:04.826Z,14.00
2022-08-09T21:44:33.444Z,14.00
2022-08-09T21:47:08.608Z,14.00
2022-08-09T21:49:39.270Z,14.00
2022-08-09T21:52:16.646Z,14.00
2022-08-09T21:55:04.023Z,13.90
2022-08-09T21:57:39.219Z,13.90
2022-08-09T22:00:32.370Z,13.90
2022-08-09T22:03:05.685Z,13.80
2022-08-09T22:05:37.002Z,13.80
2022-08-09T22:08:06.748Z,13.80
2022-08-09T22:11:49.532Z,13.80
2022-08-09T22:13:31.451Z,13.70
2022-08-09T22:16:04.122Z,13.70
2022-08-09T22:18:32.895Z,13.70
2022-08-09T22:21:01.170Z,13.60
2022-08-09T22:23:35.622Z,13.60
2022-08-09T22:26:34.084Z,13.60
2022-08-09T22:29:06.997Z,13.50
2022-08-09T22:31:35.969Z,13.50
2022-08-09T22:34:03.571Z,13.50
2022-08-09T22:36:58.855Z,13.50
2022-08-09T22:39:55.586Z,13.50
2022-08-09T22:42:21.010Z,13.40
2022-08-09T22:48:04.634Z,13.40
2022-08-09T22:48:13.373Z,13.40
2022-08-09T22:50:26.369Z,13.40
2022-08-09T22:52:57.608Z,13.40
2022-08-09T22:55:25.491Z,13.30
2022-08-09T22:58:00.824Z,13.30
2022-08-09T23:00:31.864Z,13.30
2022-08-09T23:02:58.719Z,13.20
2022-08-09T23:05:25.966Z,13.20
2022-08-09T23:08:27.381Z,13.20
2022-08-09T23:10:57.213Z,13.20
2022-08-09T23:13:27.153Z,13.20
2022-08-09T23:16:03.409Z,13.20
2022-08-09T23:18:31.258Z,13.20
2022-08-09T23:20:58.128Z,13.20
2022-08-09T23:23:25.088Z,13.20
2022-08-09T23:25:52.101Z,13.10
2022-08-09T23:28:19.046Z,13.10
2022-08-09T23:30:52.132Z,13.10
2022-08-09T23:33:22.789Z,13.00
2022-08-09T23:36:04.887Z,13.00
2022-08-09T23:38:35.666Z,12.90
2022-08-09T23:41:02.931Z,12.90
2022-08-09T23:43:29.799Z,12.90
2022-08-09T23:45:56.833Z,12.90
2022-08-09T23:48:23.723Z,12.90
2022-08-09T23:50:50.581Z,12.90
2022-08-09T23:53:17.596Z,12.90
2022-08-09T23:55:49.469Z,12.80
2022-08-09T23:58:26.136Z,12.70
